Here is the Quick Look data you requested

The Data originates at the National Weather Service, and is made available here by the UAlbany Department of Atmospheric and Environmental Sciences

Surface Observations

KBDL 231751Z 05006KT 10SM FEW150 SCT200 OVC250 20/09 A2988 RMK AO2 SLP118
 T02000089 10206 20122 58018=
KBDR 231752Z 21008KT 10SM CLR 18/11 A2989 RMK AO2 SLP122 T01830106 10189 20150
 56018=
KDXR 231753Z VRB03KT 10SM CLR 19/09 A2991 RMK AO2 SLP126 T01890089 10189 20128
 58016=
KGON 231756Z 01004KT 10SM CLR 21/10 A2986 RMK AO2 SLP111 T02110100 10217 20156
 58017=
KHFD 231753Z 35004KT 10SM CLR 19/09 A2988 RMK AO2 SLP118 T01940089 10194 20133
 58017=
KHVN 231753Z 20007KT 10SM SCT120 OVC250 17/11 A2988 RMK AO2 SLP119 T01720111
 10206 20139 58017=
KIJD 231752Z AUTO 31003KT 10SM CLR 22/09 A2987 RMK AO2 SLP114 T02170089 10222
 20139 58020=
KMMK 231753Z AUTO 04005KT 10SM CLR 20/10 A2988 RMK AO2 SLP119 T02000100 10200
 20133 58016 TSNO=
KOXC 231750Z 06004KT 10SM OVC250 18/07 A2990=